createdAt,value
2019-01-19T00:00:05.030Z,6.53
2019-01-19T00:01:33.903Z,6.30
2019-01-19T00:03:02.762Z,7.40
2019-01-19T00:04:31.888Z,6.07
2019-01-19T00:05:50.303Z,6.30
2019-01-19T00:07:02.724Z,5.27
2019-01-19T00:08:17.760Z,5.70
2019-01-19T00:09:39.243Z,6.23
2019-01-19T00:10:48.649Z,6.03
2019-01-19T00:12:06.522Z,6.57
2019-01-19T00:13:18.969Z,5.90
2019-01-19T00:14:23.865Z,5.77
2019-01-19T00:15:30.455Z,6.07
2019-01-19T00:16:56.302Z,6.10
2019-01-19T00:18:08.388Z,5.97
2019-01-19T00:19:29.947Z,5.60
2019-01-19T00:20:51.636Z,6.27
2019-01-19T00:22:03.723Z,6.40
2019-01-19T00:23:13.189Z,6.10
2019-01-19T00:24:22.306Z,5.30
2019-01-19T00:25:31.810Z,5.70
2019-01-19T00:26:44.182Z,5.90
2019-01-19T00:27:53.607Z,5.90
2019-01-19T00:29:14.390Z,5.83
2019-01-19T00:30:26.689Z,6.03
2019-01-19T00:31:33.223Z,5.80
2019-01-19T00:32:48.442Z,6.57
2019-01-19T00:34:00.666Z,4.70
2019-01-19T00:35:18.932Z,6.07
2019-01-19T00:36:25.532Z,6.30
2019-01-19T00:37:32.105Z,5.73
2019-01-19T00:39:01.080Z,5.43
2019-01-19T00:40:22.448Z,5.73
2019-01-19T00:42:01.860Z,5.60
2019-01-19T00:43:06.659Z,5.97
2019-01-19T00:44:13.224Z,6.13
2019-01-19T00:45:31.351Z,5.13
2019-01-19T00:46:40.589Z,6.00
2019-01-19T00:47:50.710Z,5.33
2019-01-19T00:48:57.343Z,6.30
2019-01-19T00:50:03.889Z,5.60
2019-01-19T00:51:19.402Z,6.20
2019-01-19T00:52:25.966Z,5.60
2019-01-19T00:53:38.228Z,4.93
2019-01-19T00:54:44.770Z,5.20
2019-01-19T00:55:54.225Z,5.23
2019-01-19T00:57:06.615Z,5.80
2019-01-19T00:58:15.777Z,5.63
2019-01-19T00:59:22.753Z,5.53
2019-01-19T01:00:37.922Z,5.17
2019-01-19T01:02:08.151Z,4.50
2019-01-19T01:03:20.667Z,5.63
2019-01-19T01:04:42.092Z,4.83
2019-01-19T01:05:54.412Z,5.10
2019-01-19T01:07:17.521Z,4.90
2019-01-19T01:08:24.115Z,5.13
2019-01-19T01:10:04.120Z,4.93
2019-01-19T01:11:13.449Z,5.20
2019-01-19T01:12:36.158Z,5.30
2019-01-19T01:13:57.293Z,4.60
2019-01-19T01:15:18.803Z,5.20
2019-01-19T01:16:42.993Z,4.73
2019-01-19T01:17:49.431Z,4.60
2019-01-19T01:19:13.710Z,5.73
2019-01-19T01:20:39.376Z,5.03
2019-01-19T01:21:51.754Z,5.50
2019-01-19T01:22:58.304Z,5.00
2019-01-19T01:24:05.206Z,4.73
2019-01-19T01:25:32.501Z,5.10
2019-01-19T01:26:56.950Z,5.03
2019-01-19T01:28:26.961Z,4.90
2019-01-19T01:29:39.016Z,5.20
2019-01-19T01:30:48.021Z,4.90
2019-01-19T01:31:57.160Z,4.20
2019-01-19T01:33:12.352Z,4.53
2019-01-19T01:34:21.782Z,4.90
2019-01-19T01:35:47.215Z,4.80
2019-01-19T01:36:56.484Z,4.73
2019-01-19T01:38:28.437Z,5.00
2019-01-19T01:39:40.478Z,4.83
2019-01-19T01:40:55.812Z,4.80
2019-01-19T01:42:08.234Z,4.33
2019-01-19T01:43:20.401Z,4.40
2019-01-19T01:44:43.231Z,4.90
2019-01-19T01:46:04.894Z,4.23
2019-01-19T01:47:17.311Z,4.30
2019-01-19T01:48:23.864Z,4.27
2019-01-19T01:49:30.399Z,5.57
2019-01-19T01:50:36.920Z,4.87
2019-01-19T01:52:04.278Z,4.40
2019-01-19T01:53:22.474Z,4.47
2019-01-19T01:54:34.726Z,4.53
2019-01-19T01:55:38.888Z,4.60
2019-01-19T01:56:42.364Z,4.40
2019-01-19T01:57:48.782Z,4.60
2019-01-19T01:59:01.111Z,5.03
2019-01-19T02:00:26.859Z,4.33
2019-01-19T02:02:07.027Z,5.00
2019-01-19T02:03:16.127Z,4.43
2019-01-19T02:04:22.677Z,4.97
2019-01-19T02:05:55.406Z,4.30
2019-01-19T02:07:01.948Z,3.70
2019-01-19T02:08:29.552Z,4.23
2019-01-19T02:09:36.089Z,4.47
2019-01-19T02:10:42.696Z,4.57
2019-01-19T02:12:08.495Z,4.30
2019-01-19T02:13:15.028Z,3.97
2019-01-19T02:14:27.346Z,4.30
2019-01-19T02:15:39.883Z,4.23
2019-01-19T02:17:07.182Z,4.50
2019-01-19T02:18:18.628Z,4.30
2019-01-19T02:19:33.846Z,4.47
2019-01-19T02:20:58.404Z,4.40
2019-01-19T02:22:22.778Z,4.30
2019-01-19T02:23:47.056Z,3.90
2019-01-19T02:25:25.118Z,4.60
2019-01-19T02:26:34.603Z,3.93
2019-01-19T02:27:43.841Z,5.00
2019-01-19T02:28:56.154Z,4.43
2019-01-19T02:30:17.445Z,3.87
2019-01-19T02:31:35.688Z,4.60
2019-01-19T02:32:44.797Z,4.03
2019-01-19T02:34:15.480Z,3.50
2019-01-19T02:35:33.800Z,4.42
2019-01-19T02:36:55.266Z,4.00
2019-01-19T02:38:01.825Z,3.57
2019-01-19T02:39:35.366Z,4.27
2019-01-19T02:40:59.921Z,4.40
2019-01-19T02:42:21.279Z,4.45
2019-01-19T02:43:42.892Z,4.17
2019-01-19T02:45:01.108Z,4.33
2019-01-19T02:46:34.333Z,4.00
2019-01-19T02:47:43.682Z,4.10
2019-01-19T02:49:06.643Z,4.27
2019-01-19T02:50:22.350Z,3.97
2019-01-19T02:51:43.553Z,3.80
2019-01-19T02:53:13.927Z,4.40
2019-01-19T02:54:26.315Z,3.57
2019-01-19T02:55:47.935Z,4.30
2019-01-19T02:57:11.701Z,3.93
2019-01-19T02:58:29.821Z,4.30
2019-01-19T02:59:42.004Z,4.10
2019-01-19T03:01:15.058Z,4.23
2019-01-19T03:02:39.368Z,4.23
2019-01-19T03:03:51.671Z,4.07
2019-01-19T03:05:04.027Z,4.07
2019-01-19T03:06:10.592Z,3.43
2019-01-19T03:07:28.777Z,4.20
2019-01-19T03:08:50.215Z,3.80
2019-01-19T03:10:14.224Z,3.50
2019-01-19T03:11:38.687Z,3.97
2019-01-19T03:13:04.755Z,3.77
2019-01-19T03:14:16.907Z,4.30
2019-01-19T03:15:29.282Z,3.97
2019-01-19T03:16:47.462Z,4.10
2019-01-19T03:17:59.731Z,4.63
2019-01-19T03:19:18.247Z,3.80
2019-01-19T03:20:36.776Z,4.00
2019-01-19T03:21:46.160Z,3.80
2019-01-19T03:22:55.506Z,4.33
2019-01-19T03:24:24.250Z,4.40
2019-01-19T03:25:47.077Z,4.27
2019-01-19T03:26:56.266Z,4.00
2019-01-19T03:28:05.315Z,3.70
2019-01-19T03:29:20.797Z,4.00
2019-01-19T03:30:44.997Z,3.53
2019-01-19T03:31:51.529Z,4.00
2019-01-19T03:33:06.886Z,3.70
2019-01-19T03:34:19.274Z,3.47
2019-01-19T03:35:34.061Z,3.50
2019-01-19T03:36:58.710Z,3.60
2019-01-19T03:38:23.062Z,3.47
2019-01-19T03:39:44.464Z,3.25
2019-01-19T03:41:07.680Z,3.23
2019-01-19T03:42:42.723Z,3.73
2019-01-19T03:44:10.362Z,3.70
2019-01-19T03:45:17.175Z,3.58
2019-01-19T03:46:35.701Z,3.67
2019-01-19T03:47:47.496Z,3.35
2019-01-19T03:49:19.296Z,3.53
2019-01-19T03:50:37.332Z,3.83
2019-01-19T03:51:55.697Z,3.60
2019-01-19T03:53:15.301Z,4.28
2019-01-19T03:54:47.351Z,3.23
2019-01-19T03:55:59.736Z,3.30
2019-01-19T03:57:20.810Z,3.10
2019-01-19T03:58:45.296Z,3.25
2019-01-19T03:59:57.460Z,3.43
2019-01-19T04:01:21.749Z,3.63
2019-01-19T04:02:59.666Z,3.42
2019-01-19T04:04:14.948Z,3.75
2019-01-19T04:05:35.706Z,3.35
2019-01-19T04:06:58.673Z,3.43
2019-01-19T04:08:10.987Z,3.50
2019-01-19T04:09:33.969Z,3.30
2019-01-19T04:10:40.649Z,2.93
2019-01-19T04:11:59.288Z,3.50
2019-01-19T04:13:11.277Z,3.00
2019-01-19T04:14:20.479Z,3.50
2019-01-19T04:15:30.030Z,3.20
2019-01-19T04:16:39.270Z,3.10
2019-01-19T04:18:00.182Z,4.28
2019-01-19T04:19:12.618Z,3.60
2019-01-19T04:20:36.943Z,2.83
2019-01-19T04:21:46.261Z,3.17
2019-01-19T04:22:50.014Z,3.10
2019-01-19T04:23:56.664Z,3.30
2019-01-19T04:25:03.225Z,2.83
2019-01-19T04:26:07.460Z,3.50
2019-01-19T04:27:11.084Z,3.33
2019-01-19T04:28:15.527Z,2.97
2019-01-19T04:29:19.099Z,3.53
2019-01-19T04:30:22.660Z,2.60
2019-01-19T04:31:26.294Z,2.77
2019-01-19T04:32:29.887Z,3.07
2019-01-19T04:33:33.544Z,3.07
2019-01-19T04:34:37.186Z,3.20
2019-01-19T04:35:40.763Z,3.57
2019-01-19T04:36:44.665Z,3.20
2019-01-19T04:37:48.330Z,2.67
2019-01-19T04:38:52.051Z,2.80
2019-01-19T04:39:55.607Z,2.90
2019-01-19T04:40:59.173Z,3.20
2019-01-19T04:42:03.034Z,2.63
2019-01-19T04:43:06.625Z,3.03
2019-01-19T04:44:10.164Z,3.00
2019-01-19T04:45:13.981Z,2.83
2019-01-19T04:46:17.828Z,2.80
2019-01-19T04:47:21.480Z,2.90
2019-01-19T04:48:25.171Z,2.70
2019-01-19T04:49:28.734Z,2.93
2019-01-19T04:50:32.432Z,2.97
2019-01-19T04:51:35.929Z,3.30
2019-01-19T04:52:39.498Z,2.80
2019-01-19T04:53:43.107Z,3.20
2019-01-19T04:54:48.407Z,2.67
2019-01-19T04:55:52.142Z,3.13
2019-01-19T04:56:55.652Z,2.50
2019-01-19T04:57:59.238Z,3.00
2019-01-19T04:59:02.838Z,2.57
2019-01-19T05:00:12.233Z,2.50
2019-01-19T05:01:15.844Z,2.73
2019-01-19T05:02:19.506Z,3.13
2019-01-19T05:03:23.000Z,3.13
2019-01-19T05:04:26.571Z,2.63
2019-01-19T05:05:30.102Z,2.60
2019-01-19T05:06:33.621Z,2.70
2019-01-19T05:07:37.132Z,2.60
2019-01-19T05:08:40.985Z,2.77
2019-01-19T05:09:44.526Z,2.70
2019-01-19T05:10:48.085Z,2.53
2019-01-19T05:11:51.621Z,2.67
2019-01-19T05:12:55.122Z,2.80
2019-01-19T05:13:58.783Z,2.87
2019-01-19T05:15:02.434Z,2.63
2019-01-19T05:16:06.107Z,2.43
2019-01-19T05:17:09.750Z,3.07
2019-01-19T05:18:13.415Z,3.00
2019-01-19T05:19:16.944Z,2.40
2019-01-19T05:20:20.533Z,2.57
2019-01-19T05:21:24.301Z,2.50
2019-01-19T05:22:27.813Z,2.87
2019-01-19T05:23:31.728Z,2.60
2019-01-19T05:24:35.488Z,2.90
2019-01-19T05:25:39.012Z,2.40
2019-01-19T05:26:42.515Z,2.77
2019-01-19T05:27:46.058Z,3.00
2019-01-19T05:28:49.541Z,2.90
2019-01-19T05:29:53.079Z,2.50
2019-01-19T05:30:56.730Z,2.70
2019-01-19T05:32:00.295Z,2.33
2019-01-19T05:33:03.904Z,2.50
2019-01-19T05:34:07.627Z,2.60
2019-01-19T05:35:11.331Z,2.90
2019-01-19T05:36:14.910Z,2.07
2019-01-19T05:37:18.534Z,2.73
2019-01-19T05:38:22.121Z,2.70
2019-01-19T05:39:25.642Z,2.67
2019-01-19T05:40:29.189Z,2.50
2019-01-19T05:41:32.775Z,2.53
2019-01-19T05:42:36.389Z,2.57
2019-01-19T05:43:40.425Z,2.10
2019-01-19T05:44:44.882Z,2.30
2019-01-19T05:45:48.537Z,2.80
2019-01-19T05:46:52.072Z,2.73
2019-01-19T05:47:55.645Z,2.27
2019-01-19T05:48:59.147Z,2.30
2019-01-19T05:50:02.830Z,3.13
2019-01-19T05:51:06.406Z,2.40
2019-01-19T05:52:10.063Z,2.17
2019-01-19T05:53:13.729Z,2.80
2019-01-19T05:54:17.305Z,2.67
2019-01-19T05:55:20.855Z,2.67
2019-01-19T05:56:24.386Z,3.50
2019-01-19T05:57:27.920Z,2.60
2019-01-19T05:58:31.455Z,2.50
2019-01-19T05:59:35.050Z,2.83
2019-01-19T06:00:38.636Z,2.40
2019-01-19T06:01:42.237Z,2.53
2019-01-19T06:02:45.729Z,2.73
2019-01-19T06:03:49.288Z,2.63
2019-01-19T06:04:52.895Z,2.70
2019-01-19T06:05:56.693Z,2.80
2019-01-19T06:07:00.284Z,2.40
2019-01-19T06:08:03.954Z,2.73
2019-01-19T06:09:08.141Z,2.63
2019-01-19T06:10:16.808Z,2.77
2019-01-19T06:11:20.373Z,2.83
2019-01-19T06:12:23.855Z,2.23
2019-01-19T06:13:27.413Z,2.60
2019-01-19T06:14:30.909Z,2.83
2019-01-19T06:15:34.516Z,2.70
2019-01-19T06:16:38.024Z,2.70
2019-01-19T06:17:42.475Z,2.47
2019-01-19T06:18:46.385Z,2.97
2019-01-19T06:19:50.067Z,2.90
2019-01-19T06:20:53.617Z,2.93
2019-01-19T06:21:57.371Z,2.77
2019-01-19T06:23:00.915Z,3.13
2019-01-19T06:24:04.674Z,3.93
2019-01-19T06:25:11.114Z,3.27
2019-01-19T06:26:14.611Z,3.03
2019-01-19T06:27:18.260Z,2.73
2019-01-19T06:28:21.816Z,2.97
2019-01-19T06:29:25.357Z,3.00
2019-01-19T06:30:29.005Z,2.50
2019-01-19T06:31:32.624Z,3.23
2019-01-19T06:32:36.197Z,3.10
2019-01-19T06:33:39.759Z,3.60
2019-01-19T06:34:43.312Z,3.30
2019-01-19T06:35:46.920Z,3.40
2019-01-19T06:36:54.920Z,3.00
2019-01-19T06:37:55.789Z,3.10
2019-01-19T06:38:59.343Z,3.57
2019-01-19T06:40:03.213Z,3.10
2019-01-19T06:41:06.883Z,3.37
2019-01-19T06:42:10.385Z,3.60
2019-01-19T06:43:13.873Z,3.50
2019-01-19T06:44:17.517Z,2.70
2019-01-19T06:45:23.241Z,2.50
2019-01-19T06:46:26.836Z,2.83
2019-01-19T06:47:30.401Z,2.93
2019-01-19T06:48:33.893Z,2.60
2019-01-19T06:49:37.380Z,2.70
2019-01-19T06:50:40.887Z,2.57
2019-01-19T06:51:44.399Z,3.43
2019-01-19T06:52:48.033Z,2.50
2019-01-19T06:53:51.865Z,2.50
2019-01-19T06:54:55.367Z,3.20
2019-01-19T06:55:58.850Z,2.83
2019-01-19T06:57:02.379Z,2.80
2019-01-19T06:58:06.008Z,2.83
2019-01-19T06:59:09.500Z,2.70
2019-01-19T07:00:16.036Z,2.70
2019-01-19T07:01:19.634Z,2.30
2019-01-19T07:02:23.196Z,2.70
2019-01-19T07:03:26.772Z,2.60
2019-01-19T07:04:30.343Z,2.13
2019-01-19T07:05:33.833Z,2.67
2019-01-19T07:06:37.431Z,2.57
2019-01-19T07:07:40.986Z,3.00
2019-01-19T07:08:44.489Z,2.40
2019-01-19T07:09:47.997Z,2.40
2019-01-19T07:10:54.237Z,2.30
2019-01-19T07:11:58.002Z,2.13
2019-01-19T07:13:01.488Z,2.93
2019-01-19T07:14:05.340Z,2.47
2019-01-19T07:15:10.977Z,2.33
2019-01-19T07:16:14.611Z,2.40
2019-01-19T07:17:18.139Z,2.77
2019-01-19T07:18:21.717Z,2.40
2019-01-19T07:19:25.285Z,2.00
2019-01-19T07:20:30.963Z,2.73
2019-01-19T07:21:34.657Z,2.30
2019-01-19T07:22:38.325Z,2.27
2019-01-19T07:23:41.973Z,2.40
2019-01-19T07:24:45.449Z,2.27
2019-01-19T07:25:49.025Z,1.97
2019-01-19T07:26:52.582Z,2.30
2019-01-19T07:27:56.192Z,2.47
2019-01-19T07:28:59.743Z,2.67
2019-01-19T07:30:03.410Z,2.40
2019-01-19T07:31:06.966Z,3.00
2019-01-19T07:32:10.603Z,2.70
2019-01-19T07:33:14.125Z,2.10
2019-01-19T07:34:17.693Z,2.07
2019-01-19T07:35:21.334Z,2.33
2019-01-19T07:36:24.895Z,2.33
2019-01-19T07:37:28.403Z,2.10
2019-01-19T07:38:32.073Z,2.20
2019-01-19T07:39:35.564Z,1.90
2019-01-19T07:40:39.142Z,2.17
2019-01-19T07:41:42.685Z,2.00
2019-01-19T07:42:48.012Z,2.23
2019-01-19T07:43:51.692Z,1.97
2019-01-19T07:44:55.193Z,1.80
2019-01-19T07:45:58.669Z,2.20
2019-01-19T07:47:02.424Z,2.13
2019-01-19T07:48:06.068Z,2.03
2019-01-19T07:49:09.743Z,2.20
2019-01-19T07:50:18.490Z,1.80
2019-01-19T07:51:21.973Z,1.70
2019-01-19T07:52:25.478Z,2.30
2019-01-19T07:53:29.109Z,1.73
2019-01-19T07:54:32.688Z,2.27
2019-01-19T07:55:36.334Z,2.23
2019-01-19T07:56:39.830Z,2.23
2019-01-19T07:57:43.484Z,2.13
2019-01-19T07:58:47.148Z,2.20
2019-01-19T07:59:50.655Z,2.23
2019-01-19T08:00:55.120Z,2.00
2019-01-19T08:01:58.745Z,2.73
2019-01-19T08:03:02.292Z,2.40
2019-01-19T08:04:05.878Z,2.83
2019-01-19T08:05:11.111Z,2.13
2019-01-19T08:06:14.871Z,2.70
2019-01-19T08:07:18.388Z,2.80
2019-01-19T08:08:21.975Z,2.47
2019-01-19T08:09:25.552Z,2.80
2019-01-19T08:10:29.053Z,2.37
2019-01-19T08:11:32.603Z,2.73
2019-01-19T08:12:36.267Z,2.80
2019-01-19T08:13:39.778Z,2.70
2019-01-19T08:14:43.282Z,2.67
2019-01-19T08:15:46.819Z,3.13
2019-01-19T08:16:50.339Z,2.87
2019-01-19T08:17:53.912Z,2.60
2019-01-19T08:18:57.384Z,2.83
2019-01-19T08:20:00.959Z,2.97
2019-01-19T08:21:04.621Z,2.80
2019-01-19T08:22:08.104Z,2.80
2019-01-19T08:23:11.774Z,2.57
2019-01-19T08:24:15.269Z,2.70
2019-01-19T08:25:18.882Z,2.70
2019-01-19T08:26:22.492Z,2.77
2019-01-19T08:27:25.973Z,5.07
2019-01-19T08:28:29.539Z,4.30
2019-01-19T08:29:33.200Z,4.17
2019-01-19T08:30:36.692Z,2.90
2019-01-19T08:31:40.418Z,3.57
2019-01-19T08:32:43.981Z,3.00
2019-01-19T08:33:47.631Z,4.30
2019-01-19T08:34:51.203Z,3.77
2019-01-19T08:35:54.842Z,3.10
2019-01-19T08:36:58.423Z,2.93
2019-01-19T08:38:02.009Z,3.10
2019-01-19T08:39:07.331Z,3.20
2019-01-19T08:40:28.011Z,2.97
2019-01-19T08:41:31.516Z,2.80
2019-01-19T08:42:35.179Z,2.70
2019-01-19T08:43:40.707Z,2.40
2019-01-19T08:44:44.186Z,2.20
2019-01-19T08:45:47.750Z,2.80
2019-01-19T08:46:51.356Z,3.03
2019-01-19T08:47:54.880Z,3.27
2019-01-19T08:48:58.426Z,2.73
2019-01-19T08:50:01.919Z,2.77
2019-01-19T08:51:05.567Z,2.83
2019-01-19T08:52:09.041Z,2.50
2019-01-19T08:53:12.715Z,3.10
2019-01-19T08:54:16.224Z,2.47
2019-01-19T08:55:19.714Z,2.53
2019-01-19T08:56:23.286Z,2.37
2019-01-19T08:57:26.973Z,2.90
2019-01-19T08:58:30.608Z,3.40
2019-01-19T08:59:34.104Z,2.93
2019-01-19T09:00:37.582Z,2.80
2019-01-19T09:01:41.153Z,3.87
2019-01-19T09:02:44.813Z,2.60
2019-01-19T09:03:48.381Z,2.97
2019-01-19T09:04:51.966Z,3.00
2019-01-19T09:05:55.532Z,3.57
2019-01-19T09:06:59.072Z,3.27
2019-01-19T09:08:02.673Z,3.20
2019-01-19T09:09:07.862Z,3.43
2019-01-19T09:10:17.473Z,3.40
2019-01-19T09:11:21.110Z,2.90
2019-01-19T09:12:24.603Z,3.13
2019-01-19T09:13:28.209Z,2.63
2019-01-19T09:14:31.692Z,3.13
2019-01-19T09:15:35.179Z,3.17
2019-01-19T09:16:40.556Z,2.47
2019-01-19T09:17:44.701Z,2.70
2019-01-19T09:18:48.290Z,2.20
2019-01-19T09:19:51.801Z,2.90
2019-01-19T09:20:55.374Z,2.60
2019-01-19T09:21:59.040Z,2.73
2019-01-19T09:23:07.165Z,2.40
2019-01-19T09:24:11.180Z,2.53
2019-01-19T09:25:15.531Z,2.43
2019-01-19T09:26:19.073Z,2.80
2019-01-19T09:27:23.240Z,2.50
2019-01-19T09:28:26.792Z,2.47
2019-01-19T09:29:30.388Z,2.10
2019-01-19T09:30:34.057Z,2.47
2019-01-19T09:31:37.576Z,2.00
2019-01-19T09:32:41.389Z,2.37
2019-01-19T09:33:45.048Z,2.47
2019-01-19T09:34:48.633Z,2.50
2019-01-19T09:35:52.304Z,2.37
2019-01-19T09:36:55.963Z,2.27
2019-01-19T09:37:59.592Z,2.00
2019-01-19T09:39:04.535Z,2.97
2019-01-19T09:40:11.214Z,2.10
2019-01-19T09:41:14.962Z,2.33
2019-01-19T09:42:18.617Z,2.53
2019-01-19T09:43:22.167Z,2.20
2019-01-19T09:44:25.816Z,3.00
2019-01-19T09:45:29.435Z,2.20
2019-01-19T09:46:32.993Z,2.27
2019-01-19T09:47:36.649Z,2.40
2019-01-19T09:48:40.298Z,2.30
2019-01-19T09:49:43.859Z,2.33
2019-01-19T09:50:47.555Z,2.10
2019-01-19T09:51:51.242Z,2.17
2019-01-19T09:52:54.739Z,2.30
2019-01-19T09:53:58.246Z,2.00
2019-01-19T09:55:01.802Z,2.03
2019-01-19T09:56:05.854Z,2.00
2019-01-19T09:57:09.478Z,2.47
2019-01-19T09:58:13.065Z,2.27
2019-01-19T09:59:16.704Z,1.93
2019-01-19T10:00:27.914Z,2.13
2019-01-19T10:01:31.444Z,2.23
2019-01-19T10:02:34.948Z,3.10
2019-01-19T10:03:38.506Z,2.60
2019-01-19T10:04:42.057Z,2.90
2019-01-19T10:05:45.587Z,2.77
2019-01-19T10:06:49.253Z,3.90
2019-01-19T10:07:52.990Z,4.67
2019-01-19T10:08:56.503Z,5.70
2019-01-19T10:10:00.011Z,5.00
2019-01-19T10:11:03.956Z,4.53
2019-01-19T10:12:07.469Z,6.10
2019-01-19T10:13:11.039Z,6.20
2019-01-19T10:14:14.597Z,7.00
2019-01-19T10:15:22.862Z,7.90
2019-01-19T10:16:26.498Z,7.17
2019-01-19T10:17:30.033Z,7.40
2019-01-19T10:18:33.827Z,7.30
2019-01-19T10:19:37.323Z,6.50
2019-01-19T10:20:40.811Z,6.10
2019-01-19T10:21:44.390Z,6.10
2019-01-19T10:22:48.050Z,6.70
2019-01-19T10:23:51.651Z,6.50
2019-01-19T10:24:55.219Z,6.60
2019-01-19T10:25:58.742Z,6.90
2019-01-19T10:27:02.321Z,7.77
2019-01-19T10:28:05.974Z,6.00
2019-01-19T10:29:09.906Z,7.27
2019-01-19T10:30:16.577Z,7.63
2019-01-19T10:31:20.090Z,7.00
2019-01-19T10:32:23.582Z,6.90
2019-01-19T10:33:27.174Z,6.97
2019-01-19T10:34:30.670Z,6.67
2019-01-19T10:35:34.302Z,6.97
2019-01-19T10:36:37.876Z,8.03
2019-01-19T10:37:41.583Z,7.10
2019-01-19T10:38:45.123Z,9.37
2019-01-19T10:39:48.607Z,8.50
2019-01-19T10:40:52.108Z,7.90
2019-01-19T10:41:55.693Z,10.37
2019-01-19T10:42:59.190Z,9.57
2019-01-19T10:44:02.718Z,9.83
2019-01-19T10:45:15.138Z,10.83
2019-01-19T10:46:18.625Z,9.80
2019-01-19T10:47:22.215Z,9.93
2019-01-19T10:48:25.729Z,10.43
2019-01-19T10:49:29.388Z,10.37
2019-01-19T10:50:32.953Z,9.80
2019-01-19T10:51:36.592Z,10.57
2019-01-19T10:52:40.175Z,9.67
2019-01-19T10:53:43.707Z,10.57
2019-01-19T10:54:47.232Z,10.70
2019-01-19T10:55:50.803Z,9.83
2019-01-19T10:56:54.360Z,9.50
2019-01-19T10:57:57.937Z,10.37
2019-01-19T10:59:01.511Z,8.80
2019-01-19T11:00:08.078Z,9.03
2019-01-19T11:01:11.731Z,10.03
2019-01-19T11:02:15.306Z,10.40
2019-01-19T11:03:18.874Z,9.13
2019-01-19T11:04:22.448Z,9.70
2019-01-19T11:05:26.237Z,9.07
2019-01-19T11:06:29.839Z,8.63
2019-01-19T11:07:33.650Z,8.80
2019-01-19T11:08:37.223Z,8.77
2019-01-19T11:09:40.809Z,8.77
2019-01-19T11:10:44.315Z,8.60
2019-01-19T11:11:47.801Z,8.90
2019-01-19T11:12:51.438Z,8.37
2019-01-19T11:13:55.014Z,9.03
2019-01-19T11:14:59.412Z,8.90
2019-01-19T11:16:07.711Z,8.20
2019-01-19T11:17:11.336Z,9.43
2019-01-19T11:18:15.019Z,8.40
2019-01-19T11:19:18.509Z,8.47
2019-01-19T11:20:30.539Z,7.80
2019-01-19T11:21:34.117Z,8.90
2019-01-19T11:22:37.742Z,8.73
2019-01-19T11:23:41.244Z,8.20
2019-01-19T11:24:44.761Z,8.60
2019-01-19T11:25:48.359Z,10.57
2019-01-19T11:26:51.952Z,7.70
2019-01-19T11:27:55.818Z,8.07
2019-01-19T11:28:59.359Z,8.67
2019-01-19T11:30:03.175Z,8.20
2019-01-19T11:31:06.757Z,8.83
2019-01-19T11:32:10.456Z,8.30
2019-01-19T11:33:14.141Z,8.43
2019-01-19T11:34:17.627Z,9.17
2019-01-19T11:35:21.610Z,8.13
2019-01-19T11:36:25.188Z,7.70
2019-01-19T11:37:28.753Z,8.57
2019-01-19T11:38:32.327Z,8.07
2019-01-19T11:39:35.974Z,8.40
2019-01-19T11:40:39.677Z,7.80
2019-01-19T11:41:43.293Z,8.37
2019-01-19T11:42:47.234Z,7.80
2019-01-19T11:43:50.745Z,8.20
2019-01-19T11:44:54.308Z,8.00
2019-01-19T11:45:57.892Z,8.07
2019-01-19T11:47:01.546Z,7.93
2019-01-19T11:48:05.678Z,7.67
2019-01-19T11:49:09.242Z,7.30
2019-01-19T11:50:13.439Z,7.20
2019-01-19T11:51:17.009Z,7.90
2019-01-19T11:52:20.699Z,8.53
2019-01-19T11:53:24.356Z,7.57
2019-01-19T11:54:28.040Z,7.60
2019-01-19T11:55:31.762Z,7.30
2019-01-19T11:56:35.265Z,7.40
2019-01-19T11:57:38.957Z,8.10
2019-01-19T11:58:42.452Z,7.20
2019-01-19T11:59:46.006Z,7.37
2019-01-19T12:00:51.295Z,7.27
2019-01-19T12:01:54.789Z,7.83
2019-01-19T12:02:58.388Z,8.30
2019-01-19T12:04:01.966Z,7.93
2019-01-19T12:05:06.614Z,7.50
2019-01-19T12:06:10.288Z,7.00
2019-01-19T12:07:13.893Z,6.63
2019-01-19T12:08:19.765Z,7.50
2019-01-19T12:09:22.702Z,6.83
2019-01-19T12:10:28.916Z,7.50
2019-01-19T12:11:32.562Z,7.90
2019-01-19T12:12:36.123Z,7.30
2019-01-19T12:13:39.663Z,7.77
2019-01-19T12:14:43.277Z,7.23
2019-01-19T12:15:46.947Z,7.37
2019-01-19T12:16:50.450Z,7.30
2019-01-19T12:17:54.318Z,7.50
2019-01-19T12:18:57.899Z,7.43
2019-01-19T12:20:01.459Z,7.47
2019-01-19T12:21:05.149Z,7.80
2019-01-19T12:22:08.673Z,6.70
2019-01-19T12:23:12.307Z,7.20
2019-01-19T12:24:16.053Z,7.70
2019-01-19T12:25:26.032Z,6.33
2019-01-19T12:26:29.550Z,6.80
2019-01-19T12:27:33.226Z,6.40
2019-01-19T12:28:36.718Z,6.77
2019-01-19T12:29:40.264Z,7.40
2019-01-19T12:30:43.816Z,6.83
2019-01-19T12:31:47.373Z,6.70
2019-01-19T12:32:51.084Z,6.70
2019-01-19T12:33:54.767Z,6.50
2019-01-19T12:34:58.375Z,6.90
2019-01-19T12:36:01.879Z,7.23
2019-01-19T12:37:05.431Z,6.33
2019-01-19T12:38:09.078Z,6.10
2019-01-19T12:39:12.585Z,6.63
2019-01-19T12:40:24.411Z,6.30
2019-01-19T12:41:27.994Z,6.30
2019-01-19T12:42:31.511Z,7.00
2019-01-19T12:43:35.027Z,6.50
2019-01-19T12:44:38.559Z,6.63
2019-01-19T12:45:44.954Z,6.33
2019-01-19T12:46:48.545Z,5.90
2019-01-19T12:47:52.103Z,6.13
2019-01-19T12:48:55.620Z,6.10
2019-01-19T12:49:59.156Z,6.40
2019-01-19T12:51:02.635Z,7.33
2019-01-19T12:52:06.295Z,6.20
2019-01-19T12:53:09.956Z,6.17
2019-01-19T12:54:13.589Z,6.27
2019-01-19T12:55:17.432Z,5.93
2019-01-19T12:56:21.009Z,6.60
2019-01-19T12:57:24.489Z,6.20
2019-01-19T12:58:28.147Z,5.97
2019-01-19T12:59:31.625Z,5.90
2019-01-19T13:00:35.312Z,6.07
2019-01-19T13:01:38.990Z,6.50
2019-01-19T13:02:42.547Z,5.57
2019-01-19T13:03:46.124Z,5.90
2019-01-19T13:04:49.674Z,6.30
2019-01-19T13:05:56.237Z,5.97
2019-01-19T13:06:59.850Z,6.77
2019-01-19T13:08:05.316Z,5.97
2019-01-19T13:09:12.852Z,5.73
2019-01-19T13:10:24.993Z,6.03
2019-01-19T13:11:37.283Z,6.43
2019-01-19T13:12:40.973Z,6.00
2019-01-19T13:13:45.995Z,5.60
2019-01-19T13:14:52.592Z,6.20
2019-01-19T13:16:23.103Z,5.97
2019-01-19T13:17:38.082Z,5.63
2019-01-19T13:19:05.391Z,5.60
2019-01-19T13:20:26.740Z,5.37
2019-01-19T13:22:04.625Z,5.37
2019-01-19T13:23:16.913Z,6.45
2019-01-19T13:24:41.540Z,5.30
2019-01-19T13:25:56.764Z,5.63
2019-01-19T13:27:27.014Z,5.83
2019-01-19T13:28:49.911Z,5.00
2019-01-19T13:30:17.357Z,6.25
2019-01-19T13:31:26.500Z,5.50
2019-01-19T13:32:57.264Z,5.13
2019-01-19T13:34:12.564Z,5.03
2019-01-19T13:35:47.414Z,5.47
2019-01-19T13:36:53.986Z,5.73
2019-01-19T13:38:16.745Z,5.85
2019-01-19T13:39:26.239Z,6.30
2019-01-19T13:40:55.433Z,5.50
2019-01-19T13:42:19.877Z,5.03
2019-01-19T13:43:51.712Z,5.33
2019-01-19T13:45:13.049Z,5.20
2019-01-19T13:46:39.015Z,5.10
2019-01-19T13:47:57.444Z,5.27
2019-01-19T13:49:09.839Z,5.80
2019-01-19T13:50:19.069Z,5.70
2019-01-19T13:51:28.043Z,5.00
2019-01-19T13:52:55.760Z,4.67
2019-01-19T13:54:29.329Z,4.80
2019-01-19T13:55:47.683Z,4.93
2019-01-19T13:57:12.266Z,4.83
2019-01-19T13:58:27.541Z,5.40
2019-01-19T13:59:37.092Z,5.00
2019-01-19T14:00:49.480Z,5.50
2019-01-19T14:02:21.334Z,5.23
2019-01-19T14:03:36.532Z,5.65
2019-01-19T14:05:02.586Z,4.60
2019-01-19T14:06:11.881Z,5.03
2019-01-19T14:07:34.291Z,5.27
2019-01-19T14:08:52.220Z,4.85
2019-01-19T14:10:13.488Z,4.80
2019-01-19T14:11:45.229Z,5.20
2019-01-19T14:13:21.559Z,4.93
2019-01-19T14:14:36.849Z,4.83
2019-01-19T14:15:45.927Z,5.30
2019-01-19T14:17:13.097Z,4.45
2019-01-19T14:18:31.516Z,4.92
2019-01-19T14:19:38.059Z,5.33
2019-01-19T14:21:07.086Z,5.63
2019-01-19T14:22:13.638Z,4.00
2019-01-19T14:23:32.220Z,5.00
2019-01-19T14:24:53.735Z,5.33
2019-01-19T14:26:12.205Z,4.40
2019-01-19T14:27:24.310Z,4.80
2019-01-19T14:28:48.598Z,4.83
2019-01-19T14:30:09.280Z,4.70
2019-01-19T14:31:32.085Z,4.37
2019-01-19T14:32:41.277Z,4.90
2019-01-19T14:33:47.893Z,4.97
2019-01-19T14:35:11.898Z,4.93
2019-01-19T14:36:27.152Z,4.93
2019-01-19T14:37:48.635Z,4.80
2019-01-19T14:39:03.947Z,5.27
2019-01-19T14:40:16.518Z,4.97
2019-01-19T14:41:25.623Z,4.37
2019-01-19T14:42:35.182Z,4.60
2019-01-19T14:43:53.855Z,4.70
2019-01-19T14:45:00.488Z,4.67
2019-01-19T14:46:16.028Z,4.80
2019-01-19T14:47:22.560Z,4.70
2019-01-19T14:48:38.009Z,4.07
2019-01-19T14:49:53.435Z,4.40
2019-01-19T14:51:08.775Z,4.90
2019-01-19T14:52:21.017Z,4.10
2019-01-19T14:53:45.668Z,5.27
2019-01-19T14:55:11.578Z,5.87
2019-01-19T14:56:26.785Z,5.97
2019-01-19T14:57:42.282Z,5.95
2019-01-19T14:58:54.561Z,7.13
2019-01-19T15:00:21.981Z,7.07
2019-01-19T15:01:34.204Z,7.45
2019-01-19T15:02:49.712Z,7.40
2019-01-19T15:04:12.842Z,7.13
2019-01-19T15:05:22.147Z,7.80
2019-01-19T15:06:30.759Z,8.20
2019-01-19T15:07:52.547Z,7.67
2019-01-19T15:09:03.830Z,8.07
2019-01-19T15:10:22.277Z,7.27
2019-01-19T15:11:31.768Z,8.20
2019-01-19T15:12:41.116Z,8.00
2019-01-19T15:13:47.751Z,7.37
2019-01-19T15:14:57.519Z,7.70
2019-01-19T15:16:06.980Z,7.30
2019-01-19T15:17:22.078Z,7.17